createdAt,value
2024-02-08T00:02:02.285Z,98287.02
2024-02-08T00:04:36.279Z,98288.89
2024-02-08T00:07:08.304Z,98282.09
2024-02-08T00:09:40.111Z,98277.73
2024-02-08T00:12:13.202Z,98273.89
2024-02-08T00:14:44.958Z,98271.40
2024-02-08T00:17:17.441Z,98261.98
2024-02-08T00:19:50.815Z,98257.86
2024-02-08T00:22:22.550Z,98250.59
2024-02-08T00:24:55.230Z,98244.52
2024-02-08T00:27:27.481Z,98245.94
2024-02-08T00:30:03.124Z,98241.54
2024-02-08T00:32:35.097Z,98241.13
2024-02-08T00:35:11.359Z,98240.77
2024-02-08T00:37:43.474Z,98234.92
2024-02-08T00:40:16.311Z,98241.27
2024-02-08T00:42:48.242Z,98243.45
2024-02-08T00:45:23.844Z,98236.23
2024-02-08T00:47:56.148Z,98227.02
2024-02-08T00:50:28.278Z,98224.61
2024-02-08T00:53:01.712Z,98220.14
2024-02-08T00:55:35.096Z,98214.64
2024-02-08T00:58:07.182Z,98211.17
2024-02-08T01:00:39.664Z,98205.34
2024-02-08T01:03:11.606Z,98212.20
2024-02-08T01:05:45.822Z,98215.91
2024-02-08T01:08:17.647Z,98212.52
2024-02-08T01:10:49.536Z,98206.13
2024-02-08T01:13:22.755Z,98208.89
2024-02-08T01:15:55.114Z,98213.60
2024-02-08T01:18:27.004Z,98216.50
2024-02-08T01:21:00.332Z,98221.27
2024-02-08T01:23:31.976Z,98226.65
2024-02-08T01:26:04.492Z,98225.05
2024-02-08T01:28:36.513Z,98222.69
2024-02-08T01:31:08.196Z,98222.63
2024-02-08T01:33:39.684Z,98219.13
2024-02-08T01:36:11.876Z,98215.54
2024-02-08T01:38:43.805Z,98212.20
2024-02-08T01:41:17.422Z,98212.64
2024-02-08T01:43:49.169Z,98211.18
2024-02-08T01:46:20.619Z,98209.33
2024-02-08T01:48:52.452Z,98205.48
2024-02-08T01:51:26.050Z,98204.23
2024-02-08T01:54:02.637Z,98203.08
2024-02-08T01:56:34.600Z,98204.69
2024-02-08T01:59:07.251Z,98206.18
2024-02-08T02:01:47.184Z,98207.28
2024-02-08T02:04:20.113Z,98209.05
2024-02-08T02:06:52.050Z,98210.24
2024-02-08T02:09:26.505Z,98212.27
2024-02-08T02:12:03.348Z,98206.55
2024-02-08T02:14:36.913Z,98210.50
2024-02-08T02:17:17.466Z,98209.11
2024-02-08T02:19:49.721Z,98206.81
2024-02-08T02:22:21.976Z,98203.05
2024-02-08T02:24:53.506Z,98201.47
2024-02-08T02:27:24.989Z,98202.80
2024-02-08T02:29:57.596Z,98205.20
2024-02-08T02:32:32.409Z,98200.19
2024-02-08T02:35:06.074Z,98209.17
2024-02-08T02:37:37.736Z,98209.23
2024-02-08T02:40:11.376Z,98204.30
2024-02-08T02:42:46.054Z,98193.00
2024-02-08T02:45:23.184Z,98184.08
2024-02-08T02:47:55.328Z,98185.67
2024-02-08T02:50:27.791Z,98184.56
2024-02-08T02:53:00.078Z,98183.53
2024-02-08T02:55:32.585Z,98182.40
2024-02-08T02:58:04.830Z,98184.16
2024-02-08T03:00:37.904Z,98191.96
2024-02-08T03:03:13.362Z,98193.41
2024-02-08T03:05:47.395Z,98193.88
2024-02-08T03:08:20.706Z,98192.75
2024-02-08T03:10:52.508Z,98191.48
2024-02-08T03:13:24.926Z,98193.86
2024-02-08T03:15:56.461Z,98193.36
2024-02-08T03:18:30.452Z,98198.10
2024-02-08T03:21:02.432Z,98197.13
2024-02-08T03:23:34.681Z,98198.52
2024-02-08T03:26:08.441Z,98199.35
2024-02-08T03:28:40.800Z,98197.16
2024-02-08T03:31:14.611Z,98187.49
2024-02-08T03:33:46.627Z,98187.33
2024-02-08T03:36:18.349Z,98190.20
2024-02-08T03:38:53.886Z,98190.70
2024-02-08T03:41:27.573Z,98190.40
2024-02-08T03:44:03.940Z,98189.68
2024-02-08T03:46:35.752Z,98191.31
2024-02-08T03:49:10.069Z,98194.58
2024-02-08T03:51:41.677Z,98194.65
2024-02-08T03:54:13.255Z,98194.04
2024-02-08T03:56:47.135Z,98194.67
2024-02-08T03:59:27.490Z,98191.29
2024-02-08T04:02:04.403Z,98184.80
2024-02-08T04:04:51.715Z,98186.36
2024-02-08T04:07:24.401Z,98181.13
2024-02-08T04:10:12.244Z,98177.60
2024-02-08T04:13:01.514Z,98182.89
2024-02-08T04:15:47.145Z,98178.65
2024-02-08T04:18:36.143Z,98175.20
2024-02-08T04:21:25.599Z,98174.80
2024-02-08T04:24:23.730Z,98170.45
2024-02-08T04:27:13.143Z,98175.58
2024-02-08T04:30:02.818Z,98173.00
2024-02-08T04:32:52.514Z,98165.51
2024-02-08T04:35:42.238Z,98176.39
2024-02-08T04:38:31.345Z,98174.17
2024-02-08T04:41:22.806Z,98166.64
2024-02-08T04:44:11.887Z,98159.95
2024-02-08T04:47:01.239Z,98162.39
2024-02-08T04:49:50.682Z,98166.11
2024-02-08T04:52:45.336Z,98168.31
2024-02-08T04:55:17.446Z,98171.16
2024-02-08T04:57:49.310Z,98172.60
2024-02-08T05:00:21.673Z,98171.23
2024-02-08T05:02:53.272Z,98164.75
2024-02-08T05:05:25.965Z,98170.34
2024-02-08T05:08:02.309Z,98163.81
2024-02-08T05:10:34.211Z,98162.85
2024-02-08T05:13:06.181Z,98156.68
2024-02-08T05:15:37.721Z,98157.06
2024-02-08T05:18:13.894Z,98157.20
2024-02-08T05:20:49.358Z,98153.84
2024-02-08T05:23:19.635Z,98147.52
2024-02-08T05:25:51.069Z,98142.36
2024-02-08T05:28:23.574Z,98136.65
2024-02-08T05:30:55.368Z,98131.78
2024-02-08T05:33:30.666Z,98130.66
2024-02-08T05:36:08.181Z,98136.63
2024-02-08T05:38:42.513Z,98142.30
2024-02-08T05:41:17.115Z,98145.61
2024-02-08T05:43:49.294Z,98142.60
2024-02-08T05:46:26.254Z,98143.66
2024-02-08T05:49:05.783Z,98151.22
2024-02-08T05:51:38.746Z,98151.81
2024-02-08T05:54:10.887Z,98142.19
2024-02-08T05:56:44.625Z,98140.23
2024-02-08T05:59:19.412Z,98140.70
2024-02-08T06:01:55.741Z,98135.65
2024-02-08T06:04:36.430Z,98131.83
2024-02-08T06:07:09.036Z,98136.96
2024-02-08T06:09:50.239Z,98145.34
2024-02-08T06:12:29.947Z,98147.70
2024-02-08T06:15:01.621Z,98144.08
2024-02-08T06:17:34.190Z,98135.33
2024-02-08T06:20:11.240Z,98125.20
2024-02-08T06:22:44.927Z,98112.12
2024-02-08T06:25:29.270Z,98107.50
2024-02-08T06:28:02.945Z,98113.33
2024-02-08T06:30:37.664Z,98109.79
2024-02-08T06:33:18.034Z,98109.88
2024-02-08T06:35:52.529Z,98120.35
2024-02-08T06:38:42.057Z,98130.02
2024-02-08T06:41:25.097Z,98132.96
2024-02-08T06:44:19.795Z,98131.39
2024-02-08T06:46:57.990Z,98129.92
2024-02-08T06:49:52.921Z,98129.19
2024-02-08T06:52:42.231Z,98127.04
2024-02-08T06:55:31.677Z,98132.13
2024-02-08T06:58:26.627Z,98132.11
2024-02-08T07:01:24.309Z,98131.66
2024-02-08T07:04:13.824Z,98122.89
2024-02-08T07:07:03.394Z,98125.20
2024-02-08T07:09:52.671Z,98122.61
2024-02-08T07:12:50.236Z,98132.89
2024-02-08T07:15:39.539Z,98127.45
2024-02-08T07:18:29.324Z,98121.07
2024-02-08T07:21:18.545Z,98116.02
2024-02-08T07:24:08.299Z,98121.52
2024-02-08T07:26:57.579Z,98122.86
2024-02-08T07:29:47.639Z,98119.33
2024-02-08T07:32:37.224Z,98120.98
2024-02-08T07:35:27.332Z,98120.39
2024-02-08T07:38:00.518Z,98118.35
2024-02-08T07:40:36.408Z,98117.94
2024-02-08T07:43:33.455Z,98124.77
2024-02-08T07:46:06.645Z,98139.24
2024-02-08T07:48:44.569Z,98146.78
2024-02-08T07:51:17.837Z,98144.36
2024-02-08T07:53:55.556Z,98149.69
2024-02-08T07:56:38.504Z,98155.09
2024-02-08T07:59:17.244Z,98158.98
2024-02-08T08:01:52.442Z,98154.25
2024-02-08T08:04:38.471Z,98155.35
2024-02-08T08:07:13.989Z,98153.95
2024-02-08T08:09:48.171Z,98155.13
2024-02-08T08:12:25.135Z,98148.25
2024-02-08T08:15:15.872Z,98151.23
2024-02-08T08:18:01.959Z,98148.92
2024-02-08T08:20:57.884Z,98149.81
2024-02-08T08:23:29.927Z,98146.48
2024-02-08T08:26:24.977Z,98144.27
2024-02-08T08:29:04.086Z,98146.27
2024-02-08T08:31:52.864Z,98145.63
2024-02-08T08:34:42.885Z,98146.95
2024-02-08T08:37:40.405Z,98143.90
2024-02-08T08:40:25.065Z,98139.98
2024-02-08T08:42:59.293Z,98131.33
2024-02-08T08:45:33.414Z,98124.62
2024-02-08T08:48:06.012Z,98122.95
2024-02-08T08:50:38.007Z,98116.39
2024-02-08T08:53:18.307Z,98113.85
2024-02-08T08:55:52.088Z,98110.73
2024-02-08T08:58:29.405Z,98107.52
2024-02-08T09:01:13.108Z,98107.23
2024-02-08T09:03:46.343Z,98109.68
2024-02-08T09:06:18.667Z,98112.58
2024-02-08T09:08:56.337Z,98111.84
2024-02-08T09:11:29.346Z,98105.16
2024-02-08T09:14:11.367Z,98100.59
2024-02-08T09:16:53.625Z,98097.80
2024-02-08T09:19:29.164Z,98084.53
2024-02-08T09:22:03.631Z,98076.84
2024-02-08T09:24:43.628Z,98074.45
2024-02-08T09:27:18.320Z,98070.44
2024-02-08T09:29:57.501Z,98075.18
2024-02-08T09:32:43.312Z,98070.14
2024-02-08T09:35:17.619Z,98063.69
2024-02-08T09:37:49.995Z,98066.15
2024-02-08T09:40:43.755Z,98061.95
2024-02-08T09:43:20.498Z,98061.77
2024-02-08T09:46:07.290Z,98061.41
2024-02-08T09:48:48.440Z,98050.55
2024-02-08T09:51:25.373Z,98043.20
2024-02-08T09:54:16.265Z,98038.29
2024-02-08T09:56:52.939Z,98047.17
2024-02-08T09:59:52.654Z,98052.27
2024-02-08T10:02:34.191Z,98051.37
2024-02-08T10:05:50.014Z,98053.65
2024-02-08T10:08:30.362Z,98047.70
2024-02-08T10:11:25.433Z,98044.21
2024-02-08T10:14:03.494Z,98044.56
2024-02-08T10:16:44.803Z,98033.20
2024-02-08T10:19:34.214Z,98029.89
2024-02-08T10:22:19.325Z,98025.70
2024-02-08T10:25:11.334Z,98022.93
2024-02-08T10:27:44.190Z,98018.77
2024-02-08T10:30:21.011Z,98013.86
2024-02-08T10:32:55.870Z,98006.89
2024-02-08T10:35:30.930Z,98003.73
2024-02-08T10:38:10.217Z,97999.38
2024-02-08T10:40:48.278Z,97994.13
2024-02-08T10:43:25.561Z,97992.21
2024-02-08T10:46:03.501Z,97987.84
2024-02-08T10:48:36.292Z,97983.48
2024-02-08T10:51:13.243Z,97980.51
2024-02-08T10:53:49.780Z,97978.05
2024-02-08T10:56:41.825Z,97968.97
2024-02-08T10:59:37.914Z,97954.11
2024-02-08T11:02:32.281Z,97945.73
2024-02-08T11:05:43.481Z,97931.91
2024-02-08T11:08:25.658Z,97919.63
2024-02-08T11:11:04.945Z,97911.70
2024-02-08T11:13:39.487Z,97903.02
2024-02-08T11:16:22.181Z,97900.02
2024-02-08T11:18:56.254Z,97894.86
2024-02-08T11:21:44.128Z,97888.04
2024-02-08T11:24:29.695Z,97880.70
2024-02-08T11:27:04.336Z,97874.95
2024-02-08T11:29:47.754Z,97871.80
2024-02-08T11:32:20.389Z,97864.35
2024-02-08T11:34:56.453Z,97865.96
2024-02-08T11:37:39.701Z,97860.41
2024-02-08T11:40:20.896Z,97855.20
2024-02-08T11:42:53.536Z,97846.67
2024-02-08T11:45:28.826Z,97838.84
2024-02-08T11:48:05.625Z,97837.06
2024-02-08T11:50:38.711Z,97828.48
2024-02-08T11:53:10.964Z,97821.77
2024-02-08T11:55:46.328Z,97809.33
2024-02-08T11:58:19.245Z,97801.02
2024-02-08T12:00:51.827Z,97793.36
2024-02-08T12:03:24.296Z,97790.87
2024-02-08T12:05:58.596Z,97785.43
2024-02-08T12:08:37.506Z,97777.10
2024-02-08T12:11:15.008Z,97774.05
2024-02-08T12:13:46.973Z,97771.43
2024-02-08T12:16:19.566Z,97767.27
2024-02-08T12:18:58.344Z,97765.77
2024-02-08T12:21:30.383Z,97760.05
2024-02-08T12:24:03.823Z,97756.52
2024-02-08T12:26:39.956Z,97756.88
2024-02-08T12:29:18.180Z,97757.15
2024-02-08T12:31:51.499Z,97755.41
2024-02-08T12:34:32.998Z,97755.95
2024-02-08T12:37:08.240Z,97756.04
2024-02-08T12:39:41.001Z,97755.13
2024-02-08T12:42:14.693Z,97756.81
2024-02-08T12:44:50.234Z,97749.57
2024-02-08T12:47:24.558Z,97745.04
2024-02-08T12:52:34.453Z,97740.64
2024-02-08T12:55:10.456Z,97748.11
2024-02-08T12:57:42.629Z,97748.48
2024-02-08T13:00:22.709Z,97783.66
2024-02-08T13:02:55.639Z,97758.72
2024-02-08T13:05:36.748Z,97783.52
2024-02-08T13:08:10.632Z,97736.87
2024-02-08T13:10:43.053Z,97745.31
2024-02-08T13:13:24.804Z,97715.80
2024-02-08T13:16:01.168Z,97722.35
2024-02-08T13:18:33.130Z,97697.94
2024-02-08T13:21:05.536Z,97681.67
2024-02-08T13:23:38.207Z,97685.55
2024-02-08T13:26:15.955Z,97691.11
2024-02-08T13:28:53.254Z,97681.57
2024-02-08T13:31:28.563Z,97683.52
2024-02-08T13:34:02.479Z,97673.97
2024-02-08T13:36:36.682Z,97670.56
2024-02-08T13:39:13.075Z,97657.13
2024-02-08T13:41:47.604Z,97648.40
2024-02-08T13:44:21.571Z,97638.11
2024-02-08T13:46:53.387Z,97632.98
2024-02-08T13:49:26.324Z,97629.41
2024-02-08T13:51:58.673Z,97629.02
2024-02-08T13:54:32.751Z,97629.59
2024-02-08T13:57:13.741Z,97625.23
2024-02-08T13:59:47.434Z,97622.20
2024-02-08T14:02:20.148Z,97621.11
2024-02-08T14:04:56.800Z,97618.77
2024-02-08T14:07:31.132Z,97604.00
2024-02-08T14:10:08.052Z,97608.63
2024-02-08T14:12:46.987Z,97606.53
2024-02-08T14:15:22.835Z,97603.63
2024-02-08T14:17:57.136Z,97602.36
2024-02-08T14:20:42.748Z,97602.42
2024-02-08T14:23:15.775Z,97594.77
2024-02-08T14:26:31.485Z,97591.55
2024-02-08T14:29:05.590Z,97586.89
2024-02-08T14:31:40.562Z,97589.63
2024-02-08T14:34:15.711Z,97588.33
2024-02-08T14:36:50.382Z,97590.44
2024-02-08T14:39:31.426Z,97587.09
2024-02-08T14:42:12.023Z,97576.45
2024-02-08T14:44:45.497Z,97584.19
2024-02-08T14:47:23.319Z,97586.55
2024-02-08T14:50:02.194Z,97579.75
2024-02-08T14:52:38.081Z,97568.81
2024-02-08T14:55:21.735Z,97563.70
2024-02-08T14:58:00.932Z,97564.91
2024-02-08T15:00:50.640Z,97549.17
2024-02-08T15:03:29.165Z,97543.38
2024-02-08T15:06:06.872Z,97540.73
2024-02-08T15:08:47.910Z,97540.60
2024-02-08T15:11:40.090Z,97537.11
2024-02-08T15:14:17.996Z,97532.23
2024-02-08T15:16:50.172Z,97525.76
2024-02-08T15:19:27.712Z,97516.30
2024-02-08T15:22:05.251Z,97517.08
2024-02-08T15:24:47.713Z,97523.09
2024-02-08T15:27:22.798Z,97519.27
2024-02-08T15:30:11.665Z,97515.58
2024-02-08T15:32:48.707Z,97507.94
2024-02-08T15:35:27.648Z,97508.71
2024-02-08T15:38:20.722Z,97509.41
2024-02-08T15:40:56.731Z,97507.55
2024-02-08T15:43:37.957Z,97500.02
2024-02-08T15:46:12.157Z,97494.22
2024-02-08T15:48:46.466Z,97493.25
2024-02-08T15:51:29.888Z,97488.64
2024-02-08T15:54:08.514Z,97485.08
2024-02-08T15:56:40.212Z,97480.44
2024-02-08T15:59:14.061Z,97471.23
2024-02-08T16:01:52.285Z,97468.79
2024-02-08T16:04:46.741Z,97462.52
2024-02-08T16:07:20.995Z,97462.92
2024-02-08T16:09:59.282Z,97453.78
2024-02-08T16:12:40.785Z,97448.83
2024-02-08T16:15:18.895Z,97448.80
2024-02-08T16:18:01.795Z,97440.67
2024-02-08T16:20:40.043Z,97436.91
2024-02-08T16:23:15.786Z,97439.94
2024-02-08T16:25:49.298Z,97435.36
2024-02-08T16:28:24.158Z,97438.41
2024-02-08T16:31:08.238Z,97437.03
2024-02-08T16:33:49.446Z,97427.50
2024-02-08T16:36:46.149Z,97422.24
2024-02-08T16:39:34.525Z,97419.24
2024-02-08T16:42:19.203Z,97410.54
2024-02-08T16:44:58.093Z,97399.74
2024-02-08T16:47:36.103Z,97402.00
2024-02-08T16:50:19.077Z,97400.02
2024-02-08T16:53:00.273Z,97396.85
2024-02-08T16:55:39.025Z,97402.51
2024-02-08T16:58:29.745Z,97402.20
2024-02-08T17:01:20.151Z,97400.95
2024-02-08T17:04:01.828Z,97409.76
2024-02-08T17:06:45.135Z,97401.63
2024-02-08T17:09:25.721Z,97410.69
2024-02-08T17:12:06.832Z,97400.60
2024-02-08T17:14:44.423Z,97393.65
2024-02-08T17:17:23.918Z,97400.31
2024-02-08T17:20:04.681Z,97405.33
2024-02-08T17:23:06.187Z,97390.80
2024-02-08T17:25:44.462Z,97396.90
2024-02-08T17:28:16.862Z,97390.00
2024-02-08T17:31:06.168Z,97400.69
2024-02-08T17:33:48.361Z,97397.67
2024-02-08T17:36:27.499Z,97401.86
2024-02-08T17:39:00.762Z,97398.81
2024-02-08T17:41:33.394Z,97404.65
2024-02-08T17:44:05.678Z,97407.08
2024-02-08T17:46:39.992Z,97396.90
2024-02-08T17:49:17.312Z,97396.02
2024-02-08T17:51:51.346Z,97398.39
2024-02-08T17:54:26.312Z,97394.48
2024-02-08T17:57:03.292Z,97388.92
2024-02-08T17:59:36.121Z,97392.77
2024-02-08T18:02:08.225Z,97391.06
2024-02-08T18:04:43.539Z,97389.80
2024-02-08T18:07:18.882Z,97388.30
2024-02-08T18:09:56.166Z,97384.77
2024-02-08T18:12:35.945Z,97380.70
2024-02-08T18:15:13.861Z,97380.19
2024-02-08T18:17:47.063Z,97379.33
2024-02-08T18:20:19.103Z,97382.12
2024-02-08T18:22:51.102Z,97381.84
2024-02-08T18:25:30.352Z,97377.35
2024-02-08T18:28:07.434Z,97377.10
2024-02-08T18:30:39.346Z,97375.68
2024-02-08T18:33:16.703Z,97375.70
2024-02-08T18:35:48.986Z,97369.43
2024-02-08T18:38:24.622Z,97367.39
2024-02-08T18:40:57.818Z,97367.59
2024-02-08T18:43:30.588Z,97365.30
2024-02-08T18:46:07.347Z,97358.67
2024-02-08T18:48:44.252Z,97361.94
2024-02-08T18:51:18.256Z,97356.75
2024-02-08T18:53:51.398Z,97359.19
2024-02-08T18:56:23.434Z,97358.09
2024-02-08T18:58:55.377Z,97352.59
2024-02-08T19:01:27.441Z,97353.91
2024-02-08T19:03:59.672Z,97356.23
2024-02-08T19:06:32.785Z,97350.61
2024-02-08T19:09:05.202Z,97353.52
2024-02-08T19:11:42.160Z,97353.34
2024-02-08T19:14:14.181Z,97359.59
2024-02-08T19:16:46.264Z,97357.27
2024-02-08T19:19:18.803Z,97355.67
2024-02-08T19:21:52.169Z,97352.45
2024-02-08T19:24:30.032Z,97344.55
2024-02-08T19:27:01.969Z,97346.87
2024-02-08T19:29:34.382Z,97350.08
2024-02-08T19:32:08.723Z,97344.27
2024-02-08T19:34:41.220Z,97339.02
2024-02-08T19:37:13.428Z,97336.00
2024-02-08T19:39:45.868Z,97326.99
2024-02-08T19:42:22.903Z,97329.63
2024-02-08T19:44:55.898Z,97332.39
2024-02-08T19:47:29.897Z,97328.96
2024-02-08T19:50:06.762Z,97321.21
2024-02-08T19:52:41.646Z,97317.27
2024-02-08T19:55:22.625Z,97313.98
2024-02-08T19:57:57.974Z,97313.00
2024-02-08T20:00:30.855Z,97312.58
2024-02-08T20:03:09.632Z,97308.77
2024-02-08T20:05:43.317Z,97311.67
2024-02-08T20:08:17.605Z,97304.52
2024-02-08T20:10:50.564Z,97306.73
2024-02-08T20:13:26.093Z,97305.57
2024-02-08T20:15:58.725Z,97307.75
2024-02-08T20:18:31.182Z,97301.11
2024-02-08T20:21:05.444Z,97303.44
2024-02-08T20:23:40.906Z,97307.98
2024-02-08T20:26:13.451Z,97305.73
2024-02-08T20:28:47.118Z,97302.49
2024-02-08T20:31:19.981Z,97302.46
2024-02-08T20:33:52.272Z,97300.85
2024-02-08T20:36:26.294Z,97301.42
2024-02-08T20:38:58.719Z,97301.66
2024-02-08T20:41:32.065Z,97297.36
2024-02-08T20:44:12.041Z,97300.72
2024-02-08T20:46:45.516Z,97301.77
2024-02-08T20:49:22.040Z,97305.35
2024-02-08T20:51:55.890Z,97306.05
2024-02-08T20:54:28.010Z,97303.84
2024-02-08T20:56:59.939Z,97305.98
2024-02-08T20:59:31.862Z,97300.64
2024-02-08T21:02:04.577Z,97298.85
2024-02-08T21:04:37.156Z,97297.23
2024-02-08T21:07:10.027Z,97296.55
2024-02-08T21:09:41.935Z,97297.38
2024-02-08T21:12:14.162Z,97297.84
2024-02-08T21:14:48.162Z,97301.36
2024-02-08T21:17:19.974Z,97297.42
2024-02-08T21:19:52.628Z,97288.65
2024-02-08T21:22:24.631Z,97283.50
2024-02-08T21:24:56.454Z,97279.92
2024-02-08T21:27:32.166Z,97276.75
2024-02-08T21:30:04.238Z,97269.17
2024-02-08T21:32:36.739Z,97266.65
2024-02-08T21:35:15.510Z,97271.09
2024-02-08T21:37:47.441Z,97273.79
2024-02-08T21:40:19.322Z,97275.46
2024-02-08T21:42:52.472Z,97273.13
2024-02-08T21:45:24.701Z,97274.85
2024-02-08T21:47:58.567Z,97270.48
2024-02-08T21:50:30.811Z,97268.30
2024-02-08T21:53:06.297Z,97268.01
2024-02-08T21:55:38.228Z,97261.87
2024-02-08T21:58:12.728Z,97266.94
2024-02-08T22:03:32.036Z,97263.52
2024-02-08T22:06:04.045Z,97263.77
2024-02-08T22:08:37.491Z,97263.50
2024-02-08T22:11:12.774Z,97260.55
2024-02-08T22:13:43.249Z,97261.08
2024-02-08T22:16:19.702Z,97266.74
2024-02-08T22:18:51.560Z,97258.58
2024-02-08T22:21:23.270Z,97255.34
2024-02-08T22:23:55.203Z,97254.61
2024-02-08T22:26:27.587Z,97256.80
2024-02-08T22:28:59.591Z,97255.36
2024-02-08T22:31:31.669Z,97252.17
2024-02-08T22:34:03.507Z,97245.04
2024-02-08T22:36:38.410Z,97248.76
2024-02-08T22:39:14.213Z,97246.44
2024-02-08T22:41:48.794Z,97243.69
2024-02-08T22:44:20.899Z,97242.73
2024-02-08T22:46:57.146Z,97238.00
2024-02-08T22:49:28.924Z,97240.25
2024-02-08T22:52:01.565Z,97236.23
2024-02-08T22:54:34.022Z,97237.48
2024-02-08T22:57:06.779Z,97234.11
2024-02-08T22:59:38.407Z,97237.08
2024-02-08T23:02:17.621Z,97232.18
2024-02-08T23:04:52.820Z,97232.48
2024-02-08T23:07:25.153Z,97222.73
2024-02-08T23:09:56.904Z,97216.02
2024-02-08T23:12:31.156Z,97216.16
2024-02-08T23:15:05.623Z,97220.58
2024-02-08T23:17:37.201Z,97216.34
2024-02-08T23:20:12.135Z,97209.19
2024-02-08T23:22:43.787Z,97207.38
2024-02-08T23:25:15.839Z,97204.63
2024-02-08T23:27:49.017Z,97195.14
2024-02-08T23:30:25.446Z,97195.90
2024-02-08T23:32:57.209Z,97197.96
2024-02-08T23:35:30.283Z,97199.91
2024-02-08T23:38:06.494Z,97198.89
2024-02-08T23:40:39.958Z,97197.43
2024-02-08T23:43:11.817Z,97197.14
2024-02-08T23:45:44.436Z,97199.22
2024-02-08T23:48:16.303Z,97187.27
2024-02-08T23:50:50.415Z,97181.31
2024-02-08T23:53:22.794Z,97167.54
2024-02-08T23:55:55.978Z,97160.38
2024-02-08T23:58:27.966Z,97158.70
